Terminal Aerodrome Forecast
Issued by NWS

Home | Current Version | Previous Version | Text Only | Print | Product List | Glossary On
Versions: 1 2 3 4 5 6 7 8 9 10 11 12 13 14 15 16 17 18 19 20 21 22 23
000
FTUS44 KLZK 050500
TAFLIT
TAF
KLIT 050533Z 0506/0606 01015G25KT 3SM -PL BR SCT009 OVC015
      TEMPO 0506/0507 1SM -PLSN BR OVC009
     FM050700 02012G20KT 2SM -SN BR OVC005
     FM051300 03010G20KT P6SM OVC040
     FM051800 36010KT P6SM SCT050
     FM060000 04003KT P6SM SKC=

USA.gov is the U.S. government's official web portal to all federal, state and local government web resources and services.